createdAt,value
2023-03-26T00:01:58.498Z,8.93
2023-03-26T00:05:01.036Z,8.96
2023-03-26T00:08:03.726Z,9.11
2023-03-26T00:11:08.034Z,8.99
2023-03-26T00:14:14.187Z,8.96
2023-03-26T00:17:17.209Z,8.90
2023-03-26T00:20:20.070Z,8.82
2023-03-26T00:23:22.583Z,8.82
2023-03-26T00:26:25.837Z,8.90
2023-03-26T00:29:28.299Z,8.69
2023-03-26T00:32:31.486Z,8.82
2023-03-26T00:35:37.970Z,8.72
2023-03-26T00:38:41.817Z,8.96
2023-03-26T00:41:44.334Z,8.82
2023-03-26T00:44:47.181Z,8.88
2023-03-26T00:47:49.921Z,8.78
2023-03-26T00:50:52.400Z,8.93
2023-03-26T00:53:55.880Z,8.95
2023-03-26T00:56:58.670Z,8.98
2023-03-26T01:00:14.997Z,9.09
2023-03-26T01:03:27.683Z,9.16
2023-03-26T01:06:35.519Z,8.88
2023-03-26T01:09:45.169Z,9.01
2023-03-26T01:12:48.009Z,9.01
2023-03-26T01:15:51.384Z,8.82
2023-03-26T01:18:54.685Z,8.72
2023-03-26T01:21:58.341Z,8.57
2023-03-26T01:25:00.813Z,8.75
2023-03-26T01:28:08.940Z,8.71
2023-03-26T01:31:29.757Z,8.83
2023-03-26T01:34:47.092Z,8.97
2023-03-26T01:38:23.072Z,8.89
2023-03-26T01:41:33.989Z,8.71
2023-03-26T01:44:46.434Z,8.90
2023-03-26T01:47:49.372Z,8.93
2023-03-26T01:50:56.320Z,9.00
2023-03-26T01:54:02.866Z,8.98
2023-03-26T01:57:21.008Z,8.81
2023-03-26T02:00:33.650Z,8.96
2023-03-26T02:03:44.993Z,8.97
2023-03-26T02:07:06.131Z,8.93
2023-03-26T02:10:29.748Z,9.02
2023-03-26T02:13:32.671Z,8.96
2023-03-26T02:16:35.386Z,9.07
2023-03-26T02:19:42.392Z,8.97
2023-03-26T02:22:48.494Z,8.85
2023-03-26T02:25:53.973Z,8.72
2023-03-26T02:28:57.634Z,8.84
2023-03-26T02:32:02.308Z,8.48
2023-03-26T02:35:06.867Z,8.41
2023-03-26T02:38:10.524Z,8.41
2023-03-26T02:41:13.431Z,8.27
2023-03-26T02:44:29.713Z,8.21
2023-03-26T02:47:35.201Z,8.11
2023-03-26T02:51:04.682Z,8.12
2023-03-26T02:54:25.534Z,7.90
2023-03-26T02:57:38.195Z,8.02
2023-03-26T03:00:40.741Z,8.10
2023-03-26T03:04:04.401Z,8.00
2023-03-26T03:07:17.991Z,7.90
2023-03-26T03:10:22.088Z,7.64
2023-03-26T03:13:38.006Z,7.60
2023-03-26T03:16:41.243Z,7.48
2023-03-26T03:19:45.926Z,7.33
2023-03-26T03:22:49.066Z,7.28
2023-03-26T03:25:52.682Z,7.25
2023-03-26T03:28:57.626Z,7.20
2023-03-26T03:32:00.506Z,7.02
2023-03-26T03:35:13.686Z,6.79
2023-03-26T03:38:19.337Z,6.83
2023-03-26T03:41:24.779Z,6.83
2023-03-26T03:44:27.353Z,6.92
2023-03-26T03:47:30.044Z,6.76
2023-03-26T03:50:34.382Z,6.82
2023-03-26T03:53:56.673Z,6.65
2023-03-26T03:57:18.863Z,6.88
2023-03-26T04:00:38.365Z,6.85
2023-03-26T04:04:00.895Z,6.54
2023-03-26T04:07:17.594Z,6.45
2023-03-26T04:10:38.855Z,6.44
2023-03-26T04:13:47.294Z,6.35
2023-03-26T04:17:02.271Z,6.31
2023-03-26T04:20:08.798Z,6.20
2023-03-26T04:23:14.264Z,6.16
2023-03-26T04:26:21.030Z,6.17
2023-03-26T04:29:49.667Z,6.18
2023-03-26T04:32:58.844Z,6.22
2023-03-26T04:36:04.340Z,6.10
2023-03-26T04:39:13.332Z,6.31
2023-03-26T04:42:37.724Z,6.27
2023-03-26T04:46:03.427Z,6.41
2023-03-26T04:49:10.596Z,6.38
2023-03-26T04:52:15.028Z,6.37
2023-03-26T04:55:45.299Z,6.69
2023-03-26T04:59:00.852Z,7.07
2023-03-26T05:02:06.566Z,7.21
2023-03-26T05:05:18.912Z,7.41
2023-03-26T05:08:21.375Z,7.56
2023-03-26T05:11:24.265Z,7.74
2023-03-26T05:14:26.955Z,7.83
2023-03-26T05:17:31.068Z,7.89
2023-03-26T05:20:35.995Z,8.09
2023-03-26T05:23:41.464Z,8.19
2023-03-26T05:26:55.080Z,8.38
2023-03-26T05:30:03.751Z,8.54
2023-03-26T05:33:12.433Z,8.70
2023-03-26T05:36:28.317Z,8.89
2023-03-26T05:39:46.985Z,9.03
2023-03-26T05:43:10.288Z,8.86
2023-03-26T05:46:23.962Z,9.00
2023-03-26T05:49:26.733Z,9.13
2023-03-26T05:52:29.998Z,9.31
2023-03-26T05:56:04.995Z,9.06
2023-03-26T05:59:42.698Z,9.11
2023-03-26T06:03:16.570Z,9.21
2023-03-26T06:06:44.930Z,9.37
2023-03-26T06:09:47.670Z,9.69
2023-03-26T06:12:50.087Z,9.80
2023-03-26T06:15:53.440Z,9.90
2023-03-26T06:19:16.475Z,10.10
2023-03-26T06:22:41.940Z,10.38
2023-03-26T06:25:56.239Z,10.58
2023-03-26T06:29:21.945Z,11.15
2023-03-26T06:32:24.806Z,11.42
2023-03-26T06:35:36.444Z,11.81
2023-03-26T06:38:39.497Z,12.02
2023-03-26T06:41:43.183Z,12.31
2023-03-26T06:45:05.017Z,12.63
2023-03-26T06:48:10.261Z,12.82
2023-03-26T06:51:26.660Z,12.93
2023-03-26T06:54:49.020Z,13.02
2023-03-26T06:58:12.863Z,13.00
2023-03-26T07:01:41.589Z,13.00
2023-03-26T07:05:02.902Z,12.83
2023-03-26T07:08:25.861Z,12.68
2023-03-26T07:11:47.946Z,12.62
2023-03-26T07:15:27.565Z,12.69
2023-03-26T07:18:48.631Z,12.73
2023-03-26T07:21:56.199Z,12.63
2023-03-26T07:25:19.451Z,12.81
2023-03-26T07:28:41.771Z,12.77
2023-03-26T07:32:14.046Z,13.08
2023-03-26T07:35:56.864Z,13.23
2023-03-26T07:39:38.156Z,13.50
2023-03-26T07:43:41.157Z,13.97
2023-03-26T07:47:08.842Z,13.85
2023-03-26T07:50:36.308Z,13.98
2023-03-26T07:54:00.522Z,14.13
2023-03-26T07:57:36.777Z,14.05
2023-03-26T08:01:22.100Z,14.44
2023-03-26T08:05:01.446Z,14.35
2023-03-26T08:08:48.102Z,14.39
2023-03-26T08:12:30.007Z,14.45
2023-03-26T08:15:39.276Z,14.13
2023-03-26T08:19:00.095Z,14.16
2023-03-26T08:22:12.099Z,14.01
2023-03-26T08:25:27.649Z,13.93
2023-03-26T08:28:43.569Z,13.83
2023-03-26T08:31:49.191Z,13.72
2023-03-26T08:34:52.805Z,13.79
2023-03-26T08:37:55.425Z,13.88
2023-03-26T08:41:04.769Z,13.97
2023-03-26T08:44:51.642Z,14.08
2023-03-26T08:48:29.907Z,13.72
2023-03-26T08:51:41.850Z,14.06
2023-03-26T08:55:22.063Z,14.19
2023-03-26T08:58:53.679Z,14.33
2023-03-26T09:02:19.224Z,14.70
2023-03-26T09:05:54.906Z,14.73
2023-03-26T09:09:21.152Z,15.01
2023-03-26T09:12:40.367Z,15.26
2023-03-26T09:15:51.403Z,15.43
2023-03-26T09:19:31.601Z,15.40
2023-03-26T09:22:56.062Z,15.48
2023-03-26T09:26:01.746Z,14.87
2023-03-26T09:29:33.740Z,15.19
2023-03-26T09:32:51.852Z,15.00
2023-03-26T09:36:36.307Z,14.98
2023-03-26T09:40:11.420Z,14.71
2023-03-26T09:43:43.086Z,14.72
2023-03-26T09:47:13.422Z,14.66
2023-03-26T09:50:15.952Z,14.74
2023-03-26T09:53:24.196Z,15.00
2023-03-26T09:56:54.136Z,15.12
2023-03-26T10:00:16.384Z,15.34
2023-03-26T10:03:49.695Z,14.90
2023-03-26T10:07:17.597Z,15.40
2023-03-26T10:10:42.253Z,15.51
2023-03-26T10:13:54.075Z,16.12
2023-03-26T10:17:28.464Z,17.42
2023-03-26T10:20:41.265Z,18.70
2023-03-26T10:24:09.195Z,19.14
2023-03-26T10:27:31.159Z,20.52
2023-03-26T10:31:06.648Z,18.93
2023-03-26T10:34:46.946Z,19.36
2023-03-26T10:38:05.301Z,21.77
2023-03-26T10:41:28.128Z,21.83
2023-03-26T10:45:12.960Z,23.87
2023-03-26T10:48:43.084Z,23.72
2023-03-26T10:52:44.333Z,23.69
2023-03-26T10:55:54.699Z,21.39
2023-03-26T10:58:57.764Z,18.53
2023-03-26T11:02:30.541Z,16.41
2023-03-26T11:05:58.937Z,16.04
2023-03-26T11:09:04.168Z,17.61
2023-03-26T11:12:28.254Z,20.32
2023-03-26T11:15:39.383Z,17.99
2023-03-26T11:18:52.053Z,17.06
2023-03-26T11:22:00.241Z,16.94
2023-03-26T11:25:29.043Z,22.82
2023-03-26T11:28:31.730Z,21.30
2023-03-26T11:31:58.871Z,23.79
2023-03-26T11:35:09.206Z,27.05
2023-03-26T11:38:23.632Z,28.28
2023-03-26T11:41:28.704Z,22.11
2023-03-26T11:44:55.178Z,19.18
2023-03-26T11:48:22.395Z,18.43
2023-03-26T11:51:41.961Z,19.87
2023-03-26T11:54:48.388Z,19.54
2023-03-26T11:57:55.904Z,19.30
2023-03-26T12:00:59.143Z,18.89
2023-03-26T12:04:13.677Z,19.27
2023-03-26T12:07:30.090Z,19.23
2023-03-26T12:10:38.256Z,18.49
2023-03-26T12:13:50.717Z,17.88
2023-03-26T12:17:14.335Z,17.94
2023-03-26T12:20:26.344Z,22.73
2023-03-26T12:24:02.460Z,24.39
2023-03-26T12:27:28.439Z,25.51
2023-03-26T12:30:42.624Z,21.71
2023-03-26T12:34:06.379Z,18.47
2023-03-26T12:37:36.834Z,19.06
2023-03-26T12:40:40.306Z,21.33
2023-03-26T12:44:54.605Z,19.41
2023-03-26T12:48:00.605Z,19.47
2023-03-26T12:51:31.203Z,19.37
2023-03-26T12:54:58.700Z,23.41
2023-03-26T12:58:16.767Z,20.48
2023-03-26T13:01:43.592Z,19.17
2023-03-26T13:05:05.788Z,18.31
2023-03-26T13:08:15.236Z,18.05
2023-03-26T13:11:41.069Z,18.16
2023-03-26T13:14:49.836Z,19.90
2023-03-26T13:17:58.607Z,20.30
2023-03-26T13:21:07.422Z,22.86
2023-03-26T13:24:23.306Z,21.80
2023-03-26T13:27:41.945Z,24.76
2023-03-26T13:31:39.075Z,25.30
2023-03-26T13:35:14.096Z,24.87
2023-03-26T13:38:58.530Z,24.52
2023-03-26T13:42:08.017Z,21.45
2023-03-26T13:45:28.874Z,23.82
2023-03-26T13:48:42.384Z,23.55
2023-03-26T13:52:01.142Z,20.06
2023-03-26T13:55:22.311Z,21.65
2023-03-26T13:58:42.403Z,19.08
2023-03-26T14:01:57.085Z,18.48
2023-03-26T14:05:12.364Z,18.51
2023-03-26T14:08:41.069Z,19.32
2023-03-26T14:12:07.129Z,20.11
2023-03-26T14:15:49.605Z,18.52
2023-03-26T14:19:33.838Z,24.41
2023-03-26T14:22:51.506Z,25.15
2023-03-26T14:26:28.480Z,21.40
2023-03-26T14:29:56.666Z,23.20
2023-03-26T14:33:28.134Z,22.10
2023-03-26T14:36:43.365Z,22.70
2023-03-26T14:40:27.054Z,21.16
2023-03-26T14:43:51.653Z,20.56
2023-03-26T14:47:09.607Z,23.99
2023-03-26T14:50:46.709Z,22.07
2023-03-26T14:53:57.044Z,20.62
2023-03-26T14:57:36.564Z,20.19
2023-03-26T15:00:44.743Z,19.42
2023-03-26T15:04:05.681Z,18.99
2023-03-26T15:07:45.533Z,18.57
2023-03-26T15:11:13.702Z,18.11
2023-03-26T15:14:35.428Z,18.18
2023-03-26T15:18:13.863Z,18.17
2023-03-26T15:21:40.977Z,18.20
2023-03-26T15:25:02.809Z,18.26
2023-03-26T15:28:33.606Z,18.15
2023-03-26T15:32:03.111Z,17.72
2023-03-26T15:35:25.701Z,17.60
2023-03-26T15:38:38.576Z,17.36
2023-03-26T15:42:14.698Z,17.31
2023-03-26T15:45:36.962Z,17.32
2023-03-26T15:49:02.295Z,17.12
2023-03-26T15:52:20.358Z,16.77
2023-03-26T15:55:36.663Z,16.87
2023-03-26T15:59:16.331Z,16.83
2023-03-26T16:02:54.712Z,16.68
2023-03-26T16:06:20.848Z,16.66
2023-03-26T16:09:32.648Z,16.51
2023-03-26T16:12:45.987Z,16.37
2023-03-26T16:16:11.331Z,16.24
2023-03-26T16:19:20.288Z,16.20
2023-03-26T16:22:32.494Z,16.12
2023-03-26T16:26:00.897Z,15.99
2023-03-26T16:29:19.433Z,15.94
2023-03-26T16:32:35.556Z,15.82
2023-03-26T16:35:48.092Z,15.65
2023-03-26T16:39:15.851Z,15.57
2023-03-26T16:42:31.813Z,15.57
2023-03-26T16:45:57.295Z,15.55
2023-03-26T16:49:25.294Z,15.37
2023-03-26T16:52:50.613Z,15.51
2023-03-26T16:55:59.908Z,15.31
2023-03-26T16:59:09.348Z,15.16
2023-03-26T17:02:26.447Z,15.14
2023-03-26T17:05:44.942Z,14.99
2023-03-26T17:09:01.391Z,15.07
2023-03-26T17:12:30.075Z,15.03
2023-03-26T17:15:48.831Z,14.98
2023-03-26T17:18:54.478Z,14.89
2023-03-26T17:22:04.269Z,14.78
2023-03-26T17:25:29.275Z,14.54
2023-03-26T17:29:17.104Z,14.62
2023-03-26T17:32:21.611Z,14.52
2023-03-26T17:35:36.790Z,14.44
2023-03-26T17:38:40.586Z,14.35
2023-03-26T17:41:55.483Z,14.41
2023-03-26T17:44:59.368Z,14.27
2023-03-26T17:48:25.370Z,14.17
2023-03-26T17:51:28.140Z,14.11
2023-03-26T17:54:49.198Z,14.10
2023-03-26T17:57:57.175Z,14.10
2023-03-26T18:01:07.058Z,14.11
2023-03-26T18:04:21.268Z,14.10
2023-03-26T18:07:57.997Z,14.01
2023-03-26T18:11:23.837Z,14.09
2023-03-26T18:14:29.625Z,14.14
2023-03-26T18:17:40.282Z,14.10
2023-03-26T18:20:47.246Z,14.12
2023-03-26T18:23:50.945Z,14.14
2023-03-26T18:26:58.537Z,14.14
2023-03-26T18:30:13.608Z,14.03
2023-03-26T18:33:20.165Z,14.02
2023-03-26T18:36:25.924Z,14.01
2023-03-26T18:39:29.003Z,14.03
2023-03-26T18:42:32.961Z,14.06
2023-03-26T18:45:40.493Z,14.01
2023-03-26T18:48:44.352Z,13.94
2023-03-26T18:51:56.762Z,13.95
2023-03-26T18:55:03.250Z,13.84
2023-03-26T18:58:31.253Z,13.84
2023-03-26T19:01:36.636Z,13.82
2023-03-26T19:04:45.326Z,13.75
2023-03-26T19:07:50.235Z,13.76
2023-03-26T19:10:54.862Z,13.74
2023-03-26T19:14:07.815Z,13.68
2023-03-26T19:17:12.055Z,13.56
2023-03-26T19:20:46.185Z,13.62
2023-03-26T19:23:49.616Z,13.56
2023-03-26T19:26:53.016Z,13.49
2023-03-26T19:29:56.260Z,13.46
2023-03-26T19:33:13.486Z,13.48
2023-03-26T19:36:29.704Z,13.40
2023-03-26T19:39:38.152Z,13.38
2023-03-26T19:42:44.735Z,13.28
2023-03-26T19:45:59.749Z,13.31
2023-03-26T19:49:04.290Z,13.34
2023-03-26T19:52:17.451Z,13.21
2023-03-26T19:55:27.410Z,13.24
2023-03-26T19:58:31.130Z,13.21
2023-03-26T20:01:34.004Z,13.25
2023-03-26T20:04:36.834Z,13.05
2023-03-26T20:07:41.367Z,13.30
2023-03-26T20:10:44.350Z,13.15
2023-03-26T20:13:47.813Z,13.20
2023-03-26T20:16:50.261Z,13.13
2023-03-26T20:19:54.271Z,13.13
2023-03-26T20:22:56.978Z,13.04
2023-03-26T20:25:59.671Z,13.03
2023-03-26T20:29:04.036Z,13.03
2023-03-26T20:32:19.159Z,13.03
2023-03-26T20:35:36.204Z,12.90
2023-03-26T20:38:40.339Z,13.04
2023-03-26T20:41:50.179Z,12.96
2023-03-26T20:44:53.501Z,12.94
2023-03-26T20:47:56.113Z,12.92
2023-03-26T20:50:58.903Z,12.89
2023-03-26T20:54:02.255Z,12.91
2023-03-26T20:57:05.540Z,12.96
2023-03-26T21:00:22.141Z,12.99
2023-03-26T21:03:24.636Z,12.90
2023-03-26T21:06:27.310Z,12.83
2023-03-26T21:09:34.143Z,12.69
2023-03-26T21:12:45.621Z,12.75
2023-03-26T21:15:49.064Z,12.68
2023-03-26T21:18:51.822Z,12.67
2023-03-26T21:22:19.941Z,12.81
2023-03-26T21:26:01.550Z,12.77
2023-03-26T21:29:04.150Z,12.88
2023-03-26T21:32:07.177Z,12.89
2023-03-26T21:35:10.603Z,12.83
2023-03-26T21:38:13.605Z,12.91
2023-03-26T21:41:36.006Z,12.76
2023-03-26T21:44:40.162Z,12.67
2023-03-26T21:47:43.549Z,12.65
2023-03-26T21:50:47.635Z,12.58
2023-03-26T21:53:50.647Z,12.47
2023-03-26T21:57:00.061Z,12.29
2023-03-26T22:00:15.291Z,12.22
2023-03-26T22:03:31.922Z,12.11
2023-03-26T22:06:43.786Z,12.15
2023-03-26T22:09:46.585Z,12.12
2023-03-26T22:12:49.379Z,12.18
2023-03-26T22:15:51.987Z,12.10
2023-03-26T22:18:54.606Z,12.14
2023-03-26T22:21:58.400Z,12.06
2023-03-26T22:25:01.209Z,12.13
2023-03-26T22:28:04.463Z,11.89
2023-03-26T22:31:08.675Z,11.81
2023-03-26T22:34:11.760Z,11.66
2023-03-26T22:37:14.456Z,11.55
2023-03-26T22:40:17.972Z,11.53
2023-03-26T22:43:20.572Z,11.41
2023-03-26T22:46:23.700Z,11.31
2023-03-26T22:49:27.462Z,11.25
2023-03-26T22:52:30.484Z,11.24
2023-03-26T22:55:33.130Z,11.21
2023-03-26T22:58:35.588Z,11.01
2023-03-26T23:01:38.128Z,11.04
2023-03-26T23:04:42.653Z,10.98
2023-03-26T23:07:46.188Z,11.12
2023-03-26T23:10:48.770Z,11.18
2023-03-26T23:13:51.814Z,11.10
2023-03-26T23:16:55.042Z,11.09
2023-03-26T23:19:57.531Z,10.91
2023-03-26T23:23:01.223Z,11.08
2023-03-26T23:26:04.742Z,11.02
2023-03-26T23:29:07.506Z,10.74
2023-03-26T23:32:23.783Z,10.84
2023-03-26T23:35:27.813Z,10.69
2023-03-26T23:38:44.040Z,10.77
2023-03-26T23:41:47.145Z,10.70
2023-03-26T23:44:49.653Z,10.83
2023-03-26T23:47:52.191Z,10.84
2023-03-26T23:51:03.178Z,10.80
2023-03-26T23:54:08.760Z,10.77
2023-03-26T23:57:11.694Z,10.77
